createdAt,value
2022-12-22T00:00:23.386Z,3.05
2022-12-22T00:04:14.838Z,3.25
2022-12-22T00:07:36.031Z,3.42
2022-12-22T00:11:03.058Z,2.86
2022-12-22T00:14:32.226Z,2.89
2022-12-22T00:18:00.779Z,3.20
2022-12-22T00:21:26.296Z,3.25
2022-12-22T00:25:01.742Z,3.24
2022-12-22T00:28:37.780Z,3.14
2022-12-22T00:32:09.689Z,3.19
2022-12-22T00:35:36.494Z,2.76
2022-12-22T00:39:08.765Z,3.12
2022-12-22T00:42:36.275Z,2.87
2022-12-22T00:46:02.015Z,3.17
2022-12-22T00:49:34.204Z,2.80
2022-12-22T00:53:07.079Z,3.20
2022-12-22T00:56:30.135Z,3.38
2022-12-22T00:59:54.754Z,3.36
2022-12-22T01:03:15.802Z,3.28
2022-12-22T01:07:30.685Z,3.44
2022-12-22T01:10:59.660Z,3.55
2022-12-22T01:15:20.616Z,3.68
2022-12-22T01:18:44.953Z,3.65
2022-12-22T01:22:08.079Z,3.67
2022-12-22T01:25:38.552Z,3.82
2022-12-22T01:29:02.088Z,3.91
2022-12-22T01:32:25.676Z,4.03
2022-12-22T01:35:53.329Z,4.25
2022-12-22T01:39:18.567Z,3.78
2022-12-22T01:42:44.838Z,4.09
2022-12-22T01:46:10.507Z,4.09
2022-12-22T01:49:36.435Z,4.19
2022-12-22T01:53:02.968Z,4.19
2022-12-22T01:56:26.529Z,4.05
2022-12-22T01:59:50.419Z,4.08
2022-12-22T02:03:14.267Z,4.18
2022-12-22T02:07:00.799Z,4.28
2022-12-22T02:10:43.413Z,4.00
2022-12-22T02:14:18.363Z,3.73
2022-12-22T02:17:49.246Z,4.07
2022-12-22T02:21:18.250Z,3.89
2022-12-22T02:24:49.932Z,4.04
2022-12-22T02:28:15.581Z,4.02
2022-12-22T02:31:38.117Z,4.17
2022-12-22T02:35:02.314Z,4.29
2022-12-22T02:38:43.073Z,4.34
2022-12-22T02:42:15.433Z,4.42
2022-12-22T02:49:35.690Z,4.31
2022-12-22T02:53:07.215Z,3.93
2022-12-22T02:56:33.900Z,4.02
2022-12-22T02:59:57.682Z,3.89
2022-12-22T03:03:25.883Z,4.06
2022-12-22T03:06:47.366Z,4.23
2022-12-22T03:10:08.599Z,4.05
2022-12-22T03:14:27.773Z,4.16
2022-12-22T03:17:52.387Z,4.20
2022-12-22T03:21:17.002Z,4.07
2022-12-22T03:24:44.525Z,4.18
2022-12-22T03:27:55.029Z,3.93
2022-12-22T03:31:03.330Z,4.16
2022-12-22T03:34:11.348Z,4.30
2022-12-22T03:37:17.274Z,4.27
2022-12-22T03:40:26.676Z,4.44
2022-12-22T03:43:51.387Z,4.32
2022-12-22T03:47:02.357Z,4.29
2022-12-22T03:50:17.788Z,4.38
2022-12-22T03:53:33.855Z,4.09
2022-12-22T03:56:46.635Z,4.20
2022-12-22T03:59:56.538Z,3.98
2022-12-22T04:03:03.738Z,3.78
2022-12-22T04:06:12.946Z,3.95
2022-12-22T04:09:23.946Z,4.01
2022-12-22T04:13:06.030Z,4.02
2022-12-22T04:16:17.539Z,4.07
2022-12-22T04:19:27.373Z,4.06
2022-12-22T04:22:37.526Z,4.05
2022-12-22T04:25:50.566Z,4.05
2022-12-22T04:28:56.709Z,4.01
2022-12-22T04:32:11.527Z,3.86
2022-12-22T04:35:20.580Z,3.87
2022-12-22T04:38:27.337Z,3.44
2022-12-22T04:41:33.492Z,3.66
2022-12-22T04:44:39.972Z,3.73
2022-12-22T04:47:45.554Z,3.73
2022-12-22T04:50:58.488Z,3.72
2022-12-22T04:54:06.697Z,3.43
2022-12-22T05:02:37.212Z,3.53
2022-12-22T05:05:49.465Z,3.67
2022-12-22T05:09:03.165Z,3.58
2022-12-22T05:12:30.534Z,3.60
2022-12-22T05:15:38.948Z,3.65
2022-12-22T05:18:50.183Z,3.61
2022-12-22T05:21:57.279Z,3.41
2022-12-22T05:25:03.696Z,3.58
2022-12-22T05:28:11.301Z,3.45
2022-12-22T05:31:19.409Z,3.35
2022-12-22T05:34:31.801Z,3.35
2022-12-22T05:37:42.763Z,3.32
2022-12-22T05:40:58.358Z,3.25
2022-12-22T05:44:13.982Z,3.46
2022-12-22T05:47:33.060Z,3.45
2022-12-22T05:50:50.037Z,3.62
2022-12-22T05:54:06.551Z,3.57
2022-12-22T05:57:15.725Z,3.55
2022-12-22T06:00:23.703Z,3.21
2022-12-22T06:03:35.599Z,3.19
2022-12-22T06:06:45.209Z,3.32
2022-12-22T06:09:54.331Z,3.00
2022-12-22T06:13:08.059Z,3.24
2022-12-22T06:16:24.101Z,3.24
2022-12-22T06:19:42.560Z,3.19
2022-12-22T06:22:53.109Z,3.03
2022-12-22T06:26:03.843Z,3.16
2022-12-22T06:29:12.747Z,3.16
2022-12-22T06:32:19.260Z,3.02
2022-12-22T06:36:16.513Z,3.09
2022-12-22T06:43:28.026Z,3.10
2022-12-22T06:47:09.861Z,2.98
2022-12-22T06:50:14.289Z,2.96
2022-12-22T06:53:22.936Z,3.01
2022-12-22T06:56:28.730Z,2.53
2022-12-22T06:59:33.207Z,3.09
2022-12-22T07:02:40.403Z,2.63
2022-12-22T07:05:53.825Z,2.97
2022-12-22T07:08:58.421Z,3.12
2022-12-22T07:12:37.253Z,3.27
2022-12-22T07:15:44.252Z,3.42
2022-12-22T07:18:49.710Z,3.63
2022-12-22T07:21:53.881Z,3.84
2022-12-22T07:24:59.187Z,3.62
2022-12-22T07:28:06.939Z,3.81
2022-12-22T07:31:20.983Z,4.09
2022-12-22T07:34:33.904Z,3.91
2022-12-22T07:37:41.441Z,4.11
2022-12-22T07:40:51.858Z,4.27
2022-12-22T07:44:01.500Z,4.41
2022-12-22T07:47:35.563Z,4.71
2022-12-22T07:50:40.019Z,4.81
2022-12-22T07:53:43.862Z,4.77
2022-12-22T07:56:49.931Z,5.05
2022-12-22T07:59:55.791Z,5.21
2022-12-22T08:03:01.913Z,5.35
2022-12-22T08:06:06.517Z,5.54
2022-12-22T08:09:15.218Z,5.69
2022-12-22T08:12:19.449Z,5.75
2022-12-22T08:15:28.058Z,5.85
2022-12-22T08:18:35.643Z,6.00
2022-12-22T08:21:44.204Z,6.13
2022-12-22T08:24:55.060Z,6.33
2022-12-22T08:28:00.158Z,6.47
2022-12-22T08:31:06.005Z,6.57
2022-12-22T08:34:14.495Z,6.72
2022-12-22T08:37:20.734Z,6.84
2022-12-22T08:40:28.778Z,6.91
2022-12-22T08:43:36.632Z,6.96
2022-12-22T08:47:16.484Z,7.03
2022-12-22T08:50:22.825Z,7.11
2022-12-22T08:54:03.465Z,6.84
2022-12-22T08:56:53.369Z,7.10
2022-12-22T08:59:57.775Z,7.25
2022-12-22T09:03:02.742Z,7.32
2022-12-22T09:06:07.612Z,7.33
2022-12-22T09:09:14.332Z,7.45
2022-12-22T09:12:22.669Z,7.54
2022-12-22T09:15:28.459Z,7.60
2022-12-22T09:18:33.709Z,7.65
2022-12-22T09:21:38.158Z,7.53
2022-12-22T09:24:42.213Z,7.37
2022-12-22T09:27:46.008Z,7.47
2022-12-22T09:30:53.785Z,7.54
2022-12-22T09:33:59.195Z,7.56
2022-12-22T09:37:06.512Z,7.61
2022-12-22T09:40:11.733Z,7.73
2022-12-22T09:43:18.722Z,7.90
2022-12-22T09:46:26.094Z,7.92
2022-12-22T09:49:32.691Z,8.03
2022-12-22T09:52:47.608Z,8.11
2022-12-22T09:55:53.661Z,8.14
2022-12-22T09:58:58.379Z,8.03
2022-12-22T10:02:13.112Z,8.16
2022-12-22T10:05:29.636Z,8.22
2022-12-22T10:08:36.629Z,8.28
2022-12-22T10:11:40.316Z,8.31
2022-12-22T10:14:48.360Z,8.40
2022-12-22T10:17:53.444Z,8.35
2022-12-22T10:21:16.535Z,8.45
2022-12-22T10:24:36.536Z,8.48
2022-12-22T10:27:46.746Z,8.64
2022-12-22T10:31:18.812Z,8.63
2022-12-22T10:34:23.004Z,8.82
2022-12-22T10:37:35.028Z,8.76
2022-12-22T10:40:45.117Z,8.93
2022-12-22T10:43:51.672Z,9.02
2022-12-22T10:46:58.394Z,9.08
2022-12-22T10:53:10.736Z,9.21
2022-12-22T10:56:30.451Z,9.25
2022-12-22T10:59:35.642Z,9.34
2022-12-22T11:02:40.795Z,9.38
2022-12-22T11:05:46.165Z,9.43
2022-12-22T11:08:52.140Z,9.45
2022-12-22T11:12:03.653Z,9.49
2022-12-22T11:15:24.225Z,9.51
2022-12-22T11:18:48.324Z,9.48
2022-12-22T11:22:00.515Z,9.57
2022-12-22T11:25:23.630Z,9.55
2022-12-22T11:28:41.428Z,9.61
2022-12-22T11:32:00.061Z,9.68
2022-12-22T11:35:14.489Z,9.66
2022-12-22T11:38:29.629Z,9.74
2022-12-22T11:41:55.974Z,9.73
2022-12-22T11:45:16.406Z,9.81
2022-12-22T11:48:39.297Z,9.82
2022-12-22T11:52:02.810Z,9.88
2022-12-22T11:55:26.415Z,9.89
2022-12-22T11:58:50.464Z,9.96
2022-12-22T12:02:26.623Z,9.96
2022-12-22T12:05:42.012Z,10.04
2022-12-22T12:09:00.585Z,10.11
2022-12-22T12:12:14.410Z,10.16
2022-12-22T12:15:33.464Z,10.19
2022-12-22T12:19:28.387Z,10.24
2022-12-22T12:23:00.347Z,10.28
2022-12-22T12:26:12.664Z,10.32
2022-12-22T12:29:21.389Z,10.35
2022-12-22T12:32:32.932Z,10.40
2022-12-22T12:35:49.145Z,10.42
2022-12-22T12:39:08.754Z,10.44
2022-12-22T12:42:29.502Z,10.50
2022-12-22T12:45:35.562Z,10.56
2022-12-22T12:48:44.339Z,10.48
2022-12-22T12:51:51.036Z,10.53
2022-12-22T12:55:33.171Z,10.47
2022-12-22T12:58:59.636Z,10.35
2022-12-22T13:02:03.930Z,10.43
2022-12-22T13:05:33.442Z,10.34
2022-12-22T13:09:40.278Z,10.36
2022-12-22T13:12:42.251Z,10.27
2022-12-22T13:15:46.297Z,10.27
2022-12-22T13:18:52.032Z,10.31
2022-12-22T13:21:59.722Z,10.31
2022-12-22T13:25:05.228Z,10.35
2022-12-22T13:28:16.564Z,10.31
2022-12-22T13:31:25.654Z,10.36
2022-12-22T13:35:29.059Z,10.33
2022-12-22T13:38:31.649Z,10.41
2022-12-22T13:41:36.295Z,10.47
2022-12-22T13:44:41.558Z,10.50
2022-12-22T13:47:49.440Z,10.47
2022-12-22T13:50:55.497Z,10.52
2022-12-22T13:54:11.026Z,10.52
2022-12-22T13:57:21.822Z,10.53
2022-12-22T14:00:27.317Z,10.54
2022-12-22T14:03:58.974Z,10.50
2022-12-22T14:06:56.542Z,10.51
2022-12-22T14:10:02.936Z,10.51
2022-12-22T14:13:10.074Z,10.49
2022-12-22T14:16:17.186Z,10.50
2022-12-22T14:19:23.759Z,10.49
2022-12-22T14:22:34.071Z,10.64
2022-12-22T14:25:42.650Z,10.65
2022-12-22T14:28:55.447Z,10.63
2022-12-22T14:32:02.065Z,10.60
2022-12-22T14:35:18.097Z,10.56
2022-12-22T14:38:24.833Z,10.68
2022-12-22T14:41:47.057Z,10.62
2022-12-22T14:44:51.764Z,10.56
2022-12-22T14:47:58.495Z,10.53
2022-12-22T14:51:05.849Z,10.52
2022-12-22T14:54:22.956Z,10.54
2022-12-22T14:57:36.755Z,10.48
2022-12-22T15:00:46.442Z,10.49
2022-12-22T15:04:18.180Z,10.45
2022-12-22T15:08:04.048Z,10.47
2022-12-22T15:10:57.264Z,10.49
2022-12-22T15:14:25.006Z,10.48
2022-12-22T15:17:30.587Z,10.50
2022-12-22T15:20:39.505Z,10.49
2022-12-22T15:23:48.207Z,10.35
2022-12-22T15:26:54.421Z,10.30
2022-12-22T15:30:00.713Z,10.36
2022-12-22T15:33:35.354Z,10.37
2022-12-22T15:36:40.938Z,10.41
2022-12-22T15:39:45.790Z,10.39
2022-12-22T15:43:57.134Z,10.32
2022-12-22T15:47:06.819Z,10.34
2022-12-22T15:50:19.250Z,10.33
2022-12-22T15:53:27.183Z,10.32
2022-12-22T15:56:42.759Z,10.35
2022-12-22T15:59:58.773Z,10.33
2022-12-22T16:03:09.182Z,10.28
2022-12-22T16:06:42.277Z,10.31
2022-12-22T16:09:49.488Z,10.32
2022-12-22T16:13:00.658Z,10.32
2022-12-22T16:16:08.686Z,10.33
2022-12-22T16:19:21.307Z,10.33
2022-12-22T16:22:39.809Z,10.30
2022-12-22T16:26:10.500Z,10.29
2022-12-22T16:29:18.059Z,10.33
2022-12-22T16:33:04.791Z,10.25
2022-12-22T16:36:11.886Z,10.31
2022-12-22T16:39:17.270Z,10.33
2022-12-22T16:45:45.645Z,10.29
2022-12-22T16:48:53.218Z,10.27
2022-12-22T16:51:58.404Z,10.25
2022-12-22T16:55:03.422Z,10.25
2022-12-22T16:58:46.735Z,10.21
2022-12-22T17:01:56.415Z,10.17
2022-12-22T17:05:07.857Z,10.24
2022-12-22T17:08:29.457Z,10.21
2022-12-22T17:11:37.845Z,10.20
2022-12-22T17:18:32.963Z,10.22
2022-12-22T17:21:48.436Z,10.18
2022-12-22T17:24:57.977Z,10.17
2022-12-22T17:28:04.503Z,10.21
2022-12-22T17:31:09.482Z,10.13
2022-12-22T17:34:16.776Z,10.13
2022-12-22T17:37:23.621Z,10.16
2022-12-22T17:40:30.952Z,10.18
2022-12-22T17:43:35.767Z,9.98
2022-12-22T17:46:40.023Z,10.00
2022-12-22T17:49:44.964Z,10.03
2022-12-22T17:52:50.896Z,9.95
2022-12-22T17:56:12.746Z,10.01
2022-12-22T17:59:16.943Z,10.04
2022-12-22T18:02:22.342Z,10.02
2022-12-22T18:05:30.064Z,10.02
2022-12-22T18:08:35.207Z,10.07
2022-12-22T18:11:46.153Z,10.04
2022-12-22T18:14:50.722Z,9.92
2022-12-22T18:17:55.305Z,10.02
2022-12-22T18:21:06.951Z,10.00
2022-12-22T18:24:17.340Z,9.80
2022-12-22T18:27:24.342Z,9.80
2022-12-22T18:30:30.821Z,9.89
2022-12-22T18:33:35.393Z,9.92
2022-12-22T18:36:44.273Z,9.96
2022-12-22T18:39:48.265Z,9.97
2022-12-22T18:42:57.254Z,9.77
2022-12-22T18:46:00.947Z,9.86
2022-12-22T18:49:06.311Z,9.87
2022-12-22T18:52:18.374Z,9.70
2022-12-22T18:55:24.386Z,9.61
2022-12-22T18:58:29.571Z,9.68
2022-12-22T19:01:38.896Z,9.73
2022-12-22T19:04:43.744Z,9.79
2022-12-22T19:07:50.922Z,9.69
2022-12-22T19:10:56.600Z,9.78
2022-12-22T19:14:02.565Z,9.58
2022-12-22T19:17:11.729Z,9.42
2022-12-22T19:20:17.927Z,9.53
2022-12-22T19:24:01.352Z,9.53
2022-12-22T19:27:05.969Z,9.50
2022-12-22T19:30:18.797Z,9.40
2022-12-22T19:33:29.519Z,9.46
2022-12-22T19:36:34.561Z,9.46
2022-12-22T19:39:39.142Z,9.52
2022-12-22T19:42:45.150Z,9.36
2022-12-22T19:45:55.582Z,9.40
2022-12-22T19:49:00.887Z,9.41
2022-12-22T19:52:07.889Z,9.41
2022-12-22T19:55:13.128Z,9.41
2022-12-22T19:58:21.367Z,9.48
2022-12-22T20:01:26.729Z,9.56
2022-12-22T20:04:30.939Z,9.53
2022-12-22T20:07:37.170Z,9.53
2022-12-22T20:10:41.969Z,9.45
2022-12-22T20:13:47.721Z,9.52
2022-12-22T20:16:56.299Z,9.41
2022-12-22T20:20:05.199Z,9.49
2022-12-22T20:23:15.376Z,9.53
2022-12-22T20:26:23.244Z,9.47
2022-12-22T20:29:27.783Z,9.52
2022-12-22T20:32:35.988Z,9.53
2022-12-22T20:35:42.488Z,9.47
2022-12-22T20:38:49.772Z,9.43
2022-12-22T20:41:58.809Z,9.43
2022-12-22T20:45:04.703Z,9.48
2022-12-22T20:48:21.097Z,9.39
2022-12-22T20:51:27.677Z,9.35
2022-12-22T20:54:34.647Z,9.34
2022-12-22T20:57:40.316Z,9.40
2022-12-22T21:00:45.884Z,9.41
2022-12-22T21:03:52.809Z,9.17
2022-12-22T21:07:21.204Z,9.22
2022-12-22T21:10:36.059Z,9.30
2022-12-22T21:13:41.379Z,9.26
2022-12-22T21:16:49.009Z,9.26
2022-12-22T21:19:55.612Z,9.14
2022-12-22T21:23:02.044Z,9.11
2022-12-22T21:26:07.737Z,9.20
2022-12-22T21:29:30.060Z,9.10
2022-12-22T21:32:37.312Z,9.16
2022-12-22T21:35:55.625Z,9.02
2022-12-22T21:39:06.514Z,9.10
2022-12-22T21:42:16.046Z,9.13
2022-12-22T21:45:23.565Z,9.07
2022-12-22T21:48:27.455Z,9.12
2022-12-22T21:56:21.751Z,8.81
2022-12-22T22:00:29.615Z,8.94
2022-12-22T22:04:28.316Z,8.88
2022-12-22T22:08:44.467Z,8.98
2022-12-22T22:12:27.958Z,9.04
2022-12-22T22:15:52.983Z,9.12
2022-12-22T22:19:13.257Z,9.01
2022-12-22T22:22:32.633Z,8.92
2022-12-22T22:26:00.654Z,8.96
2022-12-22T22:30:17.200Z,8.84
2022-12-22T22:38:16.089Z,8.94
2022-12-22T22:42:27.544Z,8.94
2022-12-22T22:45:55.914Z,8.80
2022-12-22T22:49:24.240Z,8.53
2022-12-22T22:52:45.069Z,8.77
2022-12-22T22:55:59.954Z,8.87
2022-12-22T22:59:05.447Z,8.85
2022-12-22T23:07:02.083Z,8.79
2022-12-22T23:10:41.102Z,8.93
2022-12-22T23:13:51.586Z,8.65
2022-12-22T23:17:08.499Z,8.91
2022-12-22T23:20:32.486Z,8.75
2022-12-22T23:23:59.749Z,8.78
2022-12-22T23:27:44.426Z,8.83
2022-12-22T23:34:33.488Z,8.91
2022-12-22T23:38:03.948Z,8.91
2022-12-22T23:41:51.140Z,8.97
2022-12-22T23:45:02.433Z,8.86
2022-12-22T23:48:20.868Z,8.96
2022-12-22T23:52:49.012Z,8.96
2022-12-22T23:55:58.732Z,8.91
